Time;durP1;ratioP1;P1;durP2;ratioP2;P2;SDS_P1;SDS_P2;PMS_P1;PMS_P2;Temp;Humidity;BMP_temperature;BMP_pressure;BME280_temperature;BME280_humidity;BME280_pressure;Samples;Min_cycle;Max_cycle;Signal;HPM_P1;HPM_P2
2022/08/28 00:02:15;;;;;;;19.30;8.80;;;19.00;72.30;;;;;;4982162;28;46417;-68
2022/08/28 00:04:41;;;;;;;13.77;8.57;;;;;;;;;;4982079;28;46363;-69
2022/08/28 00:07:07;;;;;;;15.47;8.00;;;19.20;64.40;;;;;;4981576;28;46369;-68
2022/08/28 00:09:33;;;;;;;14.10;8.30;;;;;;;;;;4982100;28;46562;-68
2022/08/28 00:11:59;;;;;;;12.77;7.93;;;;;;;;;;4982625;28;46625;-68
2022/08/28 00:14:25;;;;;;;16.33;8.37;;;19.00;64.40;;;;;;4980727;28;46510;-69
2022/08/28 00:16:51;;;;;;;13.10;7.90;;;;;;;;;;4981938;28;46395;-69
2022/08/28 00:19:18;;;;;;;14.47;8.80;;;18.90;69.80;;;;;;4982732;28;45811;-69
2022/08/28 00:21:45;;;;;;;15.80;8.83;;;19.00;64.50;;;;;;4982023;28;47311;-69
2022/08/28 00:24:10;;;;;;;11.83;7.87;;;19.00;72.10;;;;;;4982016;28;46367;-69
2022/08/28 00:29:21;;;;;;;12.57;8.37;;;18.90;73.60;;;;;;4981410;28;46435;-69
2022/08/28 00:31:47;;;;;;;15.30;8.83;;;19.30;74.10;;;;;;4996575;28;47132;-69
2022/08/28 00:34:13;;;;;;;12.20;8.50;;;;;;;;;;4980867;28;46229;-71
2022/08/28 00:36:40;;;;;;;13.27;8.87;;;;;;;;;;4981270;28;46481;-70
2022/08/28 00:39:06;;;;;;;13.80;8.00;;;18.60;73.00;;;;;;4981744;28;46369;-69
2022/08/28 00:41:33;;;;;;;12.30;8.80;;;18.70;65.40;;;;;;4981289;28;47438;-70
2022/08/28 00:44:10;;;;;;;14.77;8.43;;;19.10;64.30;;;;;;4980616;28;46383;-70
2022/08/28 00:46:37;;;;;;;15.07;8.10;;;19.00;64.20;;;;;;4981227;28;46378;-69
2022/08/28 00:49:05;;;;;;;14.60;8.43;;;19.10;66.50;;;;;;4974343;28;46366;-69
2022/08/28 00:54:17;;;;;;;16.90;8.60;;;19.30;74.70;;;;;;4980537;28;45781;-70
2022/08/28 00:56:45;;;;;;;12.83;7.70;;;18.70;74.20;;;;;;4980230;28;46368;-70
2022/08/28 00:59:14;;;;;;;13.73;7.23;;;19.30;65.50;;;;;;4979677;28;46367;-69
2022/08/28 01:01:40;;;;;;;14.57;9.40;;;18.70;74.60;;;;;;4978950;28;47038;-69
2022/08/28 01:04:06;;;;;;;13.00;8.80;;;;;;;;;;4981052;28;46429;-69
2022/08/28 01:06:34;;;;;;;13.50;8.43;;;18.70;75.00;;;;;;4979747;28;46606;-69
2022/08/28 01:09:00;;;;;;;11.70;8.60;;;;;;;;;;4981235;28;46328;-69
2022/08/28 01:11:27;;;;;;;13.97;9.23;;;18.90;74.70;;;;;;4980233;28;47177;-69
2022/08/28 01:13:58;;;;;;;12.77;9.03;;;18.80;65.50;;;;;;4981684;28;46520;-70
2022/08/28 01:16:24;;;;;;;17.47;8.83;;;;;;;;;;4980888;28;45769;-70
2022/08/28 01:18:51;;;;;;;15.37;7.53;;;18.90;65.10;;;;;;4994272;28;46110;-69
2022/08/28 01:21:41;;;;;;;11.83;8.50;;;18.80;66.60;;;;;;4979184;28;47593;-70
2022/08/28 01:24:13;;;;;;;11.13;7.77;;;18.80;74.50;;;;;;4980298;28;46475;-69
2022/08/28 01:26:40;;;;;;;12.80;7.80;;;18.90;71.50;;;;;;4980101;28;46452;-70
2022/08/28 01:29:07;;;;;;;12.70;8.00;;;19.10;74.90;;;;;;4981136;28;46384;-69
2022/08/28 01:31:34;;;;;;;12.23;8.53;;;18.80;65.30;;;;;;4981469;28;46129;-70
2022/08/28 01:34:00;;;;;;;26.30;9.60;;;18.90;74.40;;;;;;4980415;28;45796;-69
2022/08/28 01:36:27;;;;;;;19.40;9.37;;;18.90;65.30;;;;;;4980723;28;46391;-69
2022/08/28 01:39:00;;;;;;;13.90;9.23;;;18.80;65.10;;;;;;4979969;28;46637;-69
2022/08/28 01:41:28;;;;;;;18.23;10.13;;;;;;;;;;4980012;28;46446;-69
2022/08/28 01:43:54;;;;;;;19.07;10.20;;;;;;;;;;4993494;28;46722;-69
2022/08/28 01:46:20;;;;;;;13.20;9.20;;;;;;;;;;4980293;28;46355;-70
2022/08/28 01:48:48;;;;;;;15.20;9.17;;;;;;;;;;4981055;28;46499;-69
2022/08/28 01:51:13;;;;;;;14.77;9.33;;;19.20;75.00;;;;;;4979928;28;46328;-69
2022/08/28 01:53:40;;;;;;;18.03;10.60;;;18.90;65.20;;;;;;4979497;28;46439;-69
2022/08/28 01:56:10;;;;;;;17.93;10.17;;;18.90;65.20;;;;;;4981184;28;46304;-69
2022/08/28 01:58:37;;;;;;;15.00;10.03;;;17.70;64.10;;;;;;4978599;28;46397;-69
2022/08/28 02:01:02;;;;;;;18.50;10.90;;;18.90;70.80;;;;;;4979606;28;46652;-70
2022/08/28 02:03:29;;;;;;;14.00;10.23;;;;;;;;;;4979717;28;46411;-68
2022/08/28 02:05:54;;;;;;;17.57;11.63;;;19.10;74.80;;;;;;4979764;28;46905;-69
2022/08/28 02:08:20;;;;;;;15.03;10.60;;;;;;;;;;4978964;28;46316;-70
2022/08/28 02:10:47;;;;;;;19.40;11.50;;;;;;;;;;4980587;28;46484;-69
2022/08/28 02:13:13;;;;;;;18.67;11.07;;;;;;;;;;4981813;28;46410;-70
2022/08/28 02:15:41;;;;;;;15.77;10.90;;;19.10;67.10;;;;;;4978312;28;46386;-68
2022/08/28 02:18:07;;;;;;;17.10;11.10;;;;;;;;;;4982163;28;46450;-68
2022/08/28 02:20:33;;;;;;;18.13;11.93;;;;;;;;;;4980674;28;46447;-68
2022/08/28 02:22:59;;;;;;;21.90;11.43;;;18.90;65.50;;;;;;4982788;28;46426;-68
2022/08/28 02:25:27;;;;;;;21.20;11.20;;;18.90;65.50;;;;;;4983189;28;46407;-70
2022/08/28 02:27:52;;;;;;;15.00;10.10;;;18.70;73.50;;;;;;4981868;28;46487;-69
2022/08/28 02:30:18;;;;;;;19.20;11.00;;;;;;;;;;4982853;28;46418;-69
2022/08/28 02:32:45;;;;;;;13.30;9.50;;;19.30;68.00;;;;;;4983026;28;46280;-69
2022/08/28 02:35:13;;;;;;;15.77;10.83;;;19.00;65.70;;;;;;4982167;28;46332;-69
2022/08/28 02:37:41;;;;;;;19.10;10.23;;;18.90;65.70;;;;;;4982353;28;46242;-69
2022/08/28 02:40:07;;;;;;;16.60;10.67;;;19.20;66.50;;;;;;4982430;28;46563;-70
2022/08/28 02:42:33;;;;;;;17.80;11.07;;;18.50;66.30;;;;;;4982017;28;46387;-69
2022/08/28 02:44:59;;;;;;;15.60;11.17;;;;;;;;;;4981748;28;46359;-69
2022/08/28 02:47:25;;;;;;;15.00;10.77;;;;;;;;;;4981854;28;46362;-69
2022/08/28 02:49:51;;;;;;;18.13;11.80;;;;;;;;;;4983613;28;46468;-69
2022/08/28 02:52:22;;;;;;;17.70;9.90;;;;;;;;;;4982800;28;46445;-70
2022/08/28 02:54:48;;;;;;;14.77;10.00;;;;;;;;;;4983580;28;45823;-70
2022/08/28 02:57:14;;;;;;;18.27;10.60;;;;;;;;;;4983144;28;46334;-68
2022/08/28 02:59:42;;;;;;;18.00;10.77;;;18.60;67.10;;;;;;4982334;28;46427;-70
2022/08/28 03:02:08;;;;;;;19.17;9.50;;;18.50;68.00;;;;;;4982455;28;46305;-68
2022/08/28 03:04:37;;;;;;;13.17;8.27;;;18.30;68.70;;;;;;4981775;28;46404;-68
2022/08/28 03:07:06;;;;;;;13.13;7.70;;;18.10;78.40;;;;;;4980700;28;46360;-68
2022/08/28 03:09:32;;;;;;;11.50;6.33;;;;;;;;;;4982853;28;46591;-68
2022/08/28 03:11:58;;;;;;;14.37;6.77;;;18.10;77.30;;;;;;4982933;28;46365;-68
2022/08/28 03:14:25;;;;;;;10.90;6.80;;;18.50;70.10;;;;;;4982753;28;46757;-68
2022/08/28 03:16:51;;;;;;;10.93;6.43;;;18.40;68.20;;;;;;4982737;28;46514;-68
2022/08/28 03:19:17;;;;;;;18.27;4.10;;;18.40;69.30;;;;;;4981834;28;46731;-68
2022/08/28 03:21:42;;;;;;;11.10;4.53;;;18.40;72.90;;;;;;4981292;28;45837;-68
2022/08/28 03:24:08;;;;;;;7.30;4.20;;;18.80;71.10;;;;;;4981936;28;46356;-68
2022/08/28 03:26:34;;;;;;;10.23;4.70;;;;;;;;;;4983292;28;46931;-68
2022/08/28 03:29:00;;;;;;;6.77;4.80;;;18.50;67.60;;;;;;4981429;28;46529;-69
2022/08/28 03:31:27;;;;;;;8.93;4.60;;;18.50;70.90;;;;;;4982732;28;46368;-69
2022/08/28 03:33:53;;;;;;;9.50;4.67;;;18.40;72.40;;;;;;4980194;28;46355;-69
2022/08/28 03:36:22;;;;;;;7.27;4.30;;;18.90;73.50;;;;;;4982913;28;46509;-69
2022/08/28 03:38:50;;;;;;;11.07;4.00;;;18.60;72.30;;;;;;4980844;28;46426;-69
2022/08/28 03:41:18;;;;;;;5.97;3.90;;;18.70;67.30;;;;;;4980655;28;46229;-70
2022/08/28 03:43:44;;;;;;;6.90;4.50;;;18.40;73.80;;;;;;4981904;28;46214;-70
2022/08/28 03:46:16;;;;;;;7.50;4.70;;;18.80;74.90;;;;;;4983226;28;46388;-68
2022/08/28 03:48:42;;;;;;;7.10;4.67;;;18.70;66.60;;;;;;4980442;28;46263;-68
2022/08/28 03:51:10;;;;;;;7.60;4.90;;;18.70;66.70;;;;;;4982720;28;45763;-68
2022/08/28 03:53:36;;;;;;;9.07;4.10;;;18.80;66.70;;;;;;4981245;28;45980;-69
2022/08/28 03:56:06;;;;;;;9.77;4.67;;;18.80;66.70;;;;;;4983250;28;46294;-69
2022/08/28 03:58:32;;;;;;;7.10;5.00;;;;;;;;;;4993892;28;48174;-68
2022/08/28 04:00:58;;;;;;;6.33;4.00;;;19.00;74.90;;;;;;4981111;28;46574;-68
2022/08/28 04:03:24;;;;;;;5.63;4.07;;;;;;;;;;4981679;28;46390;-68
2022/08/28 04:05:50;;;;;;;7.43;4.60;;;;;;;;;;4982750;28;46455;-68
2022/08/28 04:11:02;;;;;;;7.47;4.30;;;;;;;;;;4979055;28;46486;-69
2022/08/28 04:13:28;;;;;;;7.63;5.00;;;18.80;71.80;;;;;;4982318;28;46551;-70
2022/08/28 04:16:02;;;;;;;10.40;4.30;;;18.90;66.40;;;;;;4984395;28;46716;-70
2022/08/28 04:18:29;;;;;;;5.80;3.93;;;18.90;66.40;;;;;;4980071;28;46427;-69
2022/08/28 04:21:06;;;;;;;8.40;4.80;;;19.10;75.80;;;;;;4982514;28;46420;-69
2022/08/28 04:23:36;;;;;;;8.47;5.60;;;18.80;66.90;;;;;;4981404;28;46279;-69
2022/08/28 04:26:06;;;;;;;10.00;5.13;;;18.80;66.60;;;;;;4982887;28;46541;-69
2022/08/28 04:28:32;;;;;;;7.10;5.13;;;18.80;73.50;;;;;;4981264;28;46028;-69
2022/08/28 04:30:58;;;;;;;11.47;5.00;;;19.00;70.90;;;;;;4981659;28;46385;-68
2022/08/28 04:33:25;;;;;;;7.80;4.70;;;18.60;71.80;;;;;;4982268;28;45778;-69
2022/08/28 04:35:51;;;;;;;7.67;5.13;;;19.00;75.10;;;;;;4981239;28;45983;-69
2022/08/28 04:38:17;;;;;;;11.50;5.20;;;;;;;;;;4980857;28;47249;-69
2022/08/28 04:40:43;;;;;;;10.40;5.23;;;18.60;75.50;;;;;;4980860;28;45848;-69
2022/08/28 04:43:09;;;;;;;7.20;5.20;;;18.50;71.40;;;;;;4981066;28;46489;-69
2022/08/28 04:45:42;;;;;;;8.23;5.53;;;18.70;67.40;;;;;;4981756;28;46514;-69
2022/08/28 04:48:08;;;;;;;9.20;5.57;;;18.70;67.50;;;;;;4980636;28;47336;-68
2022/08/28 04:50:35;;;;;;;10.13;5.67;;;;;;;;;;4981104;28;46456;-69
2022/08/28 04:53:01;;;;;;;8.03;5.80;;;;;;;;;;4980671;28;46383;-69
2022/08/28 04:55:27;;;;;;;9.13;5.10;;;;;;;;;;4980987;28;46511;-69
2022/08/28 04:57:52;;;;;;;9.00;5.53;;;18.60;70.50;;;;;;4980657;28;46468;-69
2022/08/28 05:00:18;;;;;;;11.33;5.47;;;;;;;;;;4980178;28;46312;-69
2022/08/28 05:02:44;;;;;;;9.10;5.33;;;18.80;73.30;;;;;;4980118;28;46487;-69
2022/08/28 05:05:10;;;;;;;6.83;4.70;;;18.70;67.60;;;;;;4980599;28;46453;-69
2022/08/28 05:07:36;;;;;;;6.90;4.90;;;;;;;;;;4981030;28;48004;-69
2022/08/28 05:10:02;;;;;;;6.20;4.57;;;;;;;;;;4980883;28;46486;-70
2022/08/28 05:12:28;;;;;;;7.23;5.13;;;;;;;;;;4978966;28;46430;-69
2022/08/28 05:14:54;;;;;;;7.90;4.40;;;18.70;67.70;;;;;;4980080;28;46685;-69
2022/08/28 05:17:20;;;;;;;7.57;6.00;;;18.70;69.00;;;;;;4981169;28;45976;-69
2022/08/28 05:19:47;;;;;;;8.53;5.50;;;18.70;71.20;;;;;;4981525;28;46399;-69
2022/08/28 05:22:12;;;;;;;8.47;5.47;;;18.60;71.20;;;;;;4981597;28;46429;-69
2022/08/28 05:24:39;;;;;;;8.10;5.73;;;19.00;72.90;;;;;;4981511;28;46462;-69
2022/08/28 05:27:05;;;;;;;8.20;5.63;;;18.70;67.40;;;;;;4980753;28;47011;-69
2022/08/28 05:29:31;;;;;;;8.20;5.40;;;18.90;77.60;;;;;;4980260;28;46525;-69
2022/08/28 05:31:57;;;;;;;8.40;5.40;;;18.70;67.90;;;;;;4981671;28;46438;-69
2022/08/28 05:34:22;;;;;;;7.60;5.50;;;18.70;73.80;;;;;;4980687;28;46340;-70
2022/08/28 05:36:48;;;;;;;7.33;4.83;;;;;;;;;;4980020;28;46559;-69
2022/08/28 05:39:15;;;;;;;12.13;5.90;;;18.80;67.50;;;;;;4979481;28;46367;-70
2022/08/28 05:41:42;;;;;;;10.03;6.67;;;;;;;;;;4978912;28;46410;-69
2022/08/28 05:44:10;;;;;;;9.90;6.00;;;18.50;67.60;;;;;;4977831;28;46462;-68
2022/08/28 05:46:39;;;;;;;10.17;6.00;;;18.60;79.30;;;;;;4977595;28;47097;-68
2022/08/28 05:49:06;;;;;;;9.83;5.77;;;18.70;69.10;;;;;;4978872;28;46477;-69
2022/08/28 05:51:33;;;;;;;11.23;6.40;;;19.10;78.60;;;;;;4979059;28;46452;-68
2022/08/28 05:53:59;;;;;;;9.50;6.07;;;;;;;;;;4980007;28;46606;-68
2022/08/28 05:56:31;;;;;;;8.93;6.13;;;18.80;67.60;;;;;;4976977;28;47257;-68
2022/08/28 05:58:59;;;;;;;8.00;5.50;;;18.90;76.40;;;;;;4979238;28;46669;-68
2022/08/28 06:01:27;;;;;;;14.53;5.40;;;19.30;77.50;;;;;;4978901;28;46692;-68
2022/08/28 06:03:56;;;;;;;8.90;5.00;;;18.90;77.40;;;;;;4979415;28;46459;-69
2022/08/28 06:06:23;;;;;;;10.33;5.37;;;19.10;66.90;;;;;;4978346;28;46344;-70
2022/08/28 06:08:50;;;;;;;6.97;4.70;;;19.10;66.80;;;;;;4976637;28;46363;-69
2022/08/28 06:11:20;;;;;;;7.23;5.00;;;19.30;68.60;;;;;;4977958;28;46351;-70
2022/08/28 06:13:46;;;;;;;8.67;5.50;;;19.50;72.20;;;;;;4978938;28;46497;-68
2022/08/28 06:16:12;;;;;;;12.83;5.33;;;19.30;74.80;;;;;;4978880;28;47604;-70
2022/08/28 06:18:38;;;;;;;12.47;5.40;;;18.90;71.70;;;;;;4977932;28;46265;-70
2022/08/28 06:21:04;;;;;;;9.90;5.67;;;;;;;;;;4979080;28;46387;-69
2022/08/28 06:23:30;;;;;;;9.43;5.20;;;19.80;92.60;;;;;;4979555;28;46371;-70
2022/08/28 06:25:57;;;;;;;6.70;4.60;;;19.80;91.60;;;;;;4980494;28;46572;-69
2022/08/28 06:28:25;;;;;;;5.40;4.40;;;19.50;66.00;;;;;;4979523;28;46487;-70
2022/08/28 06:30:52;;;;;;;6.87;4.50;;;;;;;;;;4979476;28;46518;-69
2022/08/28 06:33:20;;;;;;;5.87;4.67;;;;;;;;;;4980214;28;46467;-70
2022/08/28 06:35:48;;;;;;;6.43;4.63;;;;;;;;;;4979722;28;47026;-69
2022/08/28 06:38:15;;;;;;;5.50;3.83;;;19.80;64.80;;;;;;4978300;28;46376;-69
2022/08/28 06:40:44;;;;;;;6.13;4.17;;;19.80;64.90;;;;;;4979798;28;46484;-69
2022/08/28 06:43:11;;;;;;;6.03;4.00;;;19.60;68.20;;;;;;4980807;28;46647;-70
2022/08/28 06:45:39;;;;;;;4.77;3.63;;;20.00;64.70;;;;;;4978007;28;46346;-71
2022/08/28 06:48:06;;;;;;;6.00;4.40;;;20.10;64.40;;;;;;4977389;28;45794;-70
2022/08/28 06:50:32;;;;;;;6.80;3.77;;;;;;;;;;4979107;28;46415;-70
2022/08/28 06:52:58;;;;;;;5.90;3.60;;;;;;;;;;4977578;28;46443;-70
2022/08/28 06:55:24;;;;;;;6.70;4.47;;;20.10;67.00;;;;;;4991819;28;46426;-69
2022/08/28 06:57:50;;;;;;;9.30;5.20;;;;;;;;;;4977023;28;45769;-70
2022/08/28 07:00:16;;;;;;;6.93;5.47;;;;;;;;;;4980239;28;45932;-70
2022/08/28 07:02:42;;;;;;;8.10;5.17;;;;;;;;;;4982088;28;46620;-70
2022/08/28 07:05:08;;;;;;;9.37;6.37;;;;;;;;;;4982254;28;46499;-70
2022/08/28 07:07:35;;;;;;;8.53;5.93;;;20.00;64.70;;;;;;4982614;28;45764;-70
2022/08/28 07:10:00;;;;;;;8.60;5.60;;;19.90;65.10;;;;;;4983028;28;46463;-70
2022/08/28 07:12:26;;;;;;;9.60;6.27;;;20.00;64.80;;;;;;4983347;28;46345;-68
2022/08/28 07:14:51;;;;;;;8.57;6.13;;;19.70;66.10;;;;;;4981687;28;45987;-69
2022/08/28 07:17:17;;;;;;;11.60;6.30;;;;;;;;;;4981660;28;46335;-69
2022/08/28 07:19:43;;;;;;;9.03;5.40;;;19.90;64.80;;;;;;4981086;28;46387;-69
2022/08/28 07:22:08;;;;;;;7.27;4.87;;;19.80;65.10;;;;;;4985251;28;46574;-70
2022/08/28 07:24:34;;;;;;;7.83;5.17;;;19.70;66.90;;;;;;4981833;28;46346;-70
2022/08/28 07:27:01;;;;;;;6.30;4.40;;;;;;;;;;4980481;28;46363;-68
2022/08/28 07:29:27;;;;;;;8.20;4.00;;;19.80;67.60;;;;;;4983073;28;46237;-69
2022/08/28 07:31:55;;;;;;;6.93;4.00;;;20.40;63.50;;;;;;4980711;28;46502;-69
2022/08/28 07:34:22;;;;;;;5.40;3.40;;;20.30;62.50;;;;;;4981007;28;46355;-69
2022/08/28 07:36:50;;;;;;;5.03;3.53;;;;;;;;;;4979952;28;46515;-69
2022/08/28 07:39:17;;;;;;;4.60;3.40;;;20.30;63.20;;;;;;4982759;28;46459;-69
2022/08/28 07:41:43;;;;;;;6.13;3.80;;;20.40;64.00;;;;;;4980369;28;46519;-69
2022/08/28 07:46:56;;;;;;;6.10;3.27;;;20.60;61.10;;;;;;4978643;28;46363;-70
2022/08/28 07:49:23;;;;;;;4.00;3.10;;;20.70;65.10;;;;;;4979817;28;45896;-70
2022/08/28 07:51:49;;;;;;;4.37;3.43;;;20.70;64.00;;;;;;4980857;28;46357;-71
2022/08/28 07:54:16;;;;;;;4.80;3.07;;;21.00;64.30;;;;;;4981386;28;47314;-70
2022/08/28 07:56:42;;;;;;;5.40;3.83;;;;;;;;;;4981829;28;45854;-70
2022/08/28 07:59:09;;;;;;;12.60;5.40;;;21.00;63.60;;;;;;4981659;28;46353;-70
2022/08/28 08:01:39;;;;;;;10.20;5.90;;;21.40;64.10;;;;;;4980699;28;46470;-69
2022/08/28 08:04:08;;;;;;;7.83;6.00;;;21.10;60.70;;;;;;4979597;28;47050;-71
2022/08/28 08:06:36;;;;;;;15.23;6.77;;;21.20;64.20;;;;;;4979984;28;46930;-70
2022/08/28 08:09:04;;;;;;;10.60;6.27;;;20.90;60.50;;;;;;4981324;28;46444;-71
2022/08/28 08:11:30;;;;;;;10.50;7.20;;;20.90;60.50;;;;;;4980456;28;45981;-71
2022/08/28 08:13:56;;;;;;;12.10;7.77;;;;;;;;;;4981732;28;46346;-70
2022/08/28 08:16:24;;;;;;;14.03;9.90;;;20.70;61.00;;;;;;4981479;28;46376;-70
2022/08/28 08:18:50;;;;;;;15.90;10.07;;;20.40;62.30;;;;;;4980119;28;46465;-70
2022/08/28 08:21:19;;;;;;;19.20;11.13;;;20.10;64.30;;;;;;4981761;28;46487;-70
2022/08/28 08:23:45;;;;;;;19.57;11.40;;;19.90;66.40;;;;;;4981709;28;47093;-70
2022/08/28 08:26:18;;;;;;;18.07;11.10;;;19.90;63.90;;;;;;4980652;28;46511;-70
2022/08/28 08:28:45;;;;;;;16.80;11.10;;;19.70;66.20;;;;;;4980828;28;45799;-69
2022/08/28 08:31:14;;;;;;;23.13;12.53;;;19.80;66.20;;;;;;4980822;28;46064;-70
2022/08/28 08:33:46;;;;;;;18.17;12.53;;;20.00;65.20;;;;;;4981044;28;46443;-70
2022/08/28 08:36:13;;;;;;;19.63;13.10;;;20.10;62.20;;;;;;4980667;28;46472;-70
2022/08/28 08:38:40;;;;;;;21.50;14.00;;;20.20;62.00;;;;;;4979774;28;46453;-69
2022/08/28 08:41:31;;;;;;;22.80;15.60;;;20.20;61.60;;;;;;4981502;28;46399;-69
2022/08/28 08:44:24;;;;;;;22.17;15.40;;;20.10;61.70;;;;;;4973078;28;46496;-69
2022/08/28 08:47:08;;;;;;;24.90;16.70;;;20.20;62.70;;;;;;4976591;28;46066;-70
2022/08/28 08:49:42;;;;;;;25.93;16.87;;;20.20;62.50;;;;;;4978768;28;46437;-70
2022/08/28 08:52:20;;;;;;;27.43;16.67;;;20.20;61.70;;;;;;4977759;28;46312;-70
2022/08/28 08:55:05;;;;;;;23.57;15.40;;;20.20;62.80;;;;;;4976553;28;46367;-69
2022/08/28 08:57:33;;;;;;;25.03;17.93;;;20.10;63.10;;;;;;4979527;28;46451;-70
2022/08/28 09:00:00;;;;;;;28.83;18.07;;;20.10;63.30;;;;;;4979048;28;46492;-70
2022/08/28 09:02:33;;;;;;;34.20;20.27;;;20.10;63.50;;;;;;4979688;28;46599;-69
2022/08/28 09:05:04;;;;;;;25.50;17.03;;;20.00;63.40;;;;;;4979236;28;47166;-70
2022/08/28 09:07:40;;;;;;;22.20;15.67;;;20.00;63.60;;;;;;4970465;28;46437;-71
2022/08/28 09:10:13;;;;;;;19.57;14.47;;;20.00;63.80;;;;;;4995540;28;45995;-72
2022/08/28 09:13:08;;;;;;;21.20;14.93;;;20.00;63.80;;;;;;4977750;28;46408;-72
2022/08/28 09:15:39;;;;;;;18.73;14.10;;;20.00;64.20;;;;;;4973819;28;46569;-72
2022/08/28 09:18:17;;;;;;;17.53;13.30;;;19.90;64.50;;;;;;4978963;28;46450;-70
2022/08/28 09:20:43;;;;;;;19.90;14.60;;;19.90;64.70;;;;;;4976259;28;46459;-71
2022/08/28 09:23:09;;;;;;;18.83;14.23;;;19.90;64.80;;;;;;4980111;28;46445;-72
2022/08/28 09:25:43;;;;;;;20.87;14.20;;;19.90;64.80;;;;;;4977982;28;46103;-71
2022/08/28 09:28:28;;;;;;;18.60;14.07;;;19.90;64.70;;;;;;4978954;28;46345;-70
2022/08/28 09:31:04;;;;;;;22.43;15.17;;;20.00;63.80;;;;;;4978614;28;46632;-71
2022/08/28 09:33:48;;;;;;;21.77;14.60;;;20.00;64.80;;;;;;4980192;28;46522;-70
2022/08/28 09:36:36;;;;;;;23.73;15.30;;;20.00;64.80;;;;;;4980100;28;47271;-69
2022/08/28 09:39:23;;;;;;;22.50;16.07;;;20.10;64.70;;;;;;4976849;28;46520;-72
2022/08/28 09:44:53;;;;;;;34.27;21.67;;;20.10;64.90;;;;;;4975938;28;46450;-70
2022/08/28 09:47:39;;;;;;;32.50;23.90;;;19.90;65.00;;;;;;4977011;28;46773;-70
2022/08/28 09:50:21;;;;;;;33.70;22.43;;;19.90;65.60;;;;;;4978212;28;46559;-70
2022/08/28 09:52:48;;;;;;;35.53;22.80;;;19.80;65.80;;;;;;4977603;28;46679;-71
2022/08/28 09:55:26;;;;;;;36.57;23.00;;;19.90;65.40;;;;;;4976494;28;46564;-71
2022/08/28 09:57:53;;;;;;;33.40;21.70;;;20.00;65.30;;;;;;4976327;28;46440;-70
2022/08/28 10:00:19;;;;;;;37.27;23.90;;;20.10;64.80;;;;;;4977776;28;46375;-70
2022/08/28 10:02:58;;;;;;;34.47;24.70;;;20.10;64.80;;;;;;4979540;28;46599;-67
2022/08/28 10:05:59;;;;;;;32.73;21.50;;;20.10;64.90;;;;;;4977201;28;46353;-68
2022/08/28 10:08:58;;;;;;;53.50;25.13;;;20.20;64.80;;;;;;4978206;28;46559;-68
2022/08/28 10:11:42;;;;;;;38.87;23.63;;;20.20;64.50;;;;;;4977837;28;46493;-69
2022/08/28 10:14:26;;;;;;;43.07;23.50;;;20.30;64.40;;;;;;4978362;28;46446;-69
2022/08/28 10:17:32;;;;;;;31.77;21.83;;;20.20;64.70;;;;;;4978007;28;46676;-68
2022/08/28 10:20:16;;;;;;;33.90;23.53;;;20.20;64.70;;;;;;4979900;28;47132;-69
2022/08/28 10:22:56;;;;;;;34.00;23.03;;;20.10;64.90;;;;;;4978219;28;46415;-68
2022/08/28 10:25:28;;;;;;;32.63;22.60;;;20.10;65.00;;;;;;4979612;28;45869;-69
2022/08/28 10:28:14;;;;;;;31.33;21.60;;;20.10;65.10;;;;;;4979290;28;46383;-68
2022/08/28 10:30:58;;;;;;;31.60;22.20;;;20.10;64.90;;;;;;4979369;28;46543;-69
2022/08/28 10:33:32;;;;;;;38.70;23.13;;;20.20;64.90;;;;;;4980060;28;46826;-70
2022/08/28 10:36:05;;;;;;;31.27;21.77;;;20.20;64.70;;;;;;4978946;28;46450;-70
2022/08/28 10:38:42;;;;;;;34.20;21.40;;;20.20;64.70;;;;;;4980652;28;46396;-70
2022/08/28 10:41:12;;;;;;;30.40;23.07;;;20.20;63.80;;;;;;4982092;28;46954;-70
2022/08/28 10:43:46;;;;;;;29.20;20.90;;;20.20;64.70;;;;;;4982467;28;46454;-69
2022/08/28 10:46:28;;;;;;;33.50;22.63;;;20.30;64.70;;;;;;4982087;28;46472;-70
2022/08/28 10:49:08;;;;;;;27.23;19.93;;;20.30;64.70;;;;;;4975724;28;46526;-71
2022/08/28 10:52:01;;;;;;;35.13;22.53;;;20.30;64.60;;;;;;4981809;28;47157;-71
2022/08/28 10:54:44;;;;;;;31.50;21.63;;;20.40;64.50;;;;;;4981755;28;46493;-71
2022/08/28 10:57:38;;;;;;;34.43;22.10;;;20.50;64.20;;;;;;4982115;28;46351;-70
2022/08/28 11:00:23;;;;;;;31.40;21.43;;;20.50;64.00;;;;;;4980114;28;46438;-69
2022/08/28 11:02:57;;;;;;;33.80;21.90;;;20.60;63.90;;;;;;4979992;28;46696;-69
2022/08/28 11:05:27;;;;;;;35.93;23.80;;;20.60;64.10;;;;;;4980616;28;46533;-71
2022/08/28 11:07:57;;;;;;;29.73;21.43;;;20.50;64.50;;;;;;4979676;28;46543;-70
2022/08/28 11:10:48;;;;;;;31.70;22.87;;;20.50;64.30;;;;;;4981637;28;45806;-70
2022/08/28 11:13:40;;;;;;;31.10;21.23;;;20.40;64.60;;;;;;4977988;28;46440;-70
2022/08/28 11:16:32;;;;;;;36.23;24.20;;;20.70;64.50;;;;;;4981775;28;46878;-70
2022/08/28 11:19:16;;;;;;;30.83;21.33;;;20.70;63.60;;;;;;4976726;28;46590;-71
2022/08/28 11:22:09;;;;;;;28.03;21.47;;;21.00;61.30;;;;;;4979112;28;46466;-70
2022/08/28 11:24:38;;;;;;;30.80;20.67;;;21.10;62.30;;;;;;4980130;28;45945;-71
2022/08/28 11:27:15;;;;;;;30.10;22.57;;;21.20;61.90;;;;;;4980285;28;46631;-69
2022/08/28 11:30:09;;;;;;;33.63;23.00;;;21.20;61.90;;;;;;4982117;28;46520;-71
2022/08/28 11:32:50;;;;;;;31.20;21.73;;;21.30;62.00;;;;;;4981767;28;46431;-69
2022/08/28 11:35:28;;;;;;;32.70;21.40;;;21.30;62.00;;;;;;4980834;28;47287;-70
2022/08/28 11:37:55;;;;;;;29.50;21.83;;;21.30;62.00;;;;;;4980567;28;46509;-68
2022/08/28 11:40:32;;;;;;;32.00;20.97;;;21.40;61.70;;;;;;4980642;28;45866;-68
2022/08/28 11:43:13;;;;;;;29.07;20.73;;;21.40;61.10;;;;;;4980022;28;46630;-71
2022/08/28 11:45:42;;;;;;;30.10;20.77;;;21.60;60.70;;;;;;4978856;28;46490;-71
2022/08/28 11:48:34;;;;;;;31.97;20.67;;;21.70;60.40;;;;;;4981670;28;46502;-71
2022/08/28 11:51:26;;;;;;;26.33;20.27;;;21.90;59.10;;;;;;4979193;28;46649;-69
2022/08/28 11:53:51;;;;;;;33.10;21.93;;;21.80;60.00;;;;;;4981855;28;46537;-68
2022/08/28 11:56:27;;;;;;;27.67;20.00;;;22.00;59.80;;;;;;4980077;28;45936;-68
2022/08/28 11:59:03;;;;;;;29.53;21.13;;;22.00;59.30;;;;;;4980374;28;46525;-68
2022/08/28 12:01:34;;;;;;;35.60;20.90;;;22.10;59.40;;;;;;4980899;28;47379;-69
2022/08/28 12:04:06;;;;;;;25.20;19.90;;;22.10;59.50;;;;;;4980421;28;46596;-68
2022/08/28 12:06:44;;;;;;;26.17;19.70;;;22.00;59.70;;;;;;4980626;28;46439;-67
2022/08/28 12:09:48;;;;;;;31.27;20.40;;;22.00;59.50;;;;;;4978740;28;46407;-69
2022/08/28 12:12:20;;;;;;;26.30;19.73;;;22.00;59.40;;;;;;4995272;28;46340;-68
2022/08/28 12:14:46;;;;;;;34.37;22.47;;;22.00;59.60;;;;;;4979829;28;46359;-68
2022/08/28 12:17:22;;;;;;;26.73;18.80;;;22.00;59.80;;;;;;4978665;28;48474;-68
2022/08/28 12:19:54;;;;;;;31.13;20.83;;;21.90;59.90;;;;;;4979748;28;46361;-70
2022/08/28 12:22:23;;;;;;;27.30;19.53;;;21.90;59.80;;;;;;4981083;28;46560;-69
2022/08/28 12:24:55;;;;;;;28.67;19.40;;;21.90;59.80;;;;;;4979962;28;46745;-69
2022/08/28 12:27:22;;;;;;;33.20;20.50;;;21.90;59.70;;;;;;4978877;28;47956;-68
2022/08/28 12:29:50;;;;;;;27.57;19.60;;;21.90;59.80;;;;;;4980698;28;46411;-69
2022/08/28 12:32:37;;;;;;;28.90;18.77;;;21.80;60.00;;;;;;4979960;28;46386;-69
2022/08/28 12:35:03;;;;;;;30.10;20.50;;;21.90;59.70;;;;;;4978693;28;46544;-69
2022/08/28 12:37:45;;;;;;;27.27;18.40;;;22.20;59.00;;;;;;4978142;28;46428;-69
2022/08/28 12:40:29;;;;;;;29.50;19.90;;;22.30;58.40;;;;;;4979285;28;46364;-71
2022/08/28 12:42:57;;;;;;;22.60;16.67;;;22.50;58.20;;;;;;4979164;28;46384;-70
2022/08/28 12:45:44;;;;;;;27.43;19.17;;;22.70;57.60;;;;;;4980719;28;45860;-70
2022/08/28 12:48:30;;;;;;;23.77;16.40;;;22.80;57.10;;;;;;4978989;28;47098;-69
2022/08/28 12:51:10;;;;;;;24.07;18.20;;;22.90;55.60;;;;;;4979449;28;46466;-71
2022/08/28 12:53:38;;;;;;;22.30;16.77;;;22.90;56.50;;;;;;4980828;28;46387;-70
2022/08/28 12:56:03;;;;;;;24.70;16.57;;;23.00;56.30;;;;;;4977828;28;46348;-69
2022/08/28 12:58:32;;;;;;;23.13;15.70;;;23.30;55.70;;;;;;4980518;28;47339;-71
2022/08/28 13:01:04;;;;;;;24.53;15.00;;;23.70;53.30;;;;;;4979332;28;46781;-70
2022/08/28 13:03:32;;;;;;;20.63;15.10;;;23.70;54.20;;;;;;4979126;28;46379;-70
2022/08/28 13:06:05;;;;;;;23.83;15.43;;;24.00;53.40;;;;;;4979744;28;46490;-70
2022/08/28 13:08:32;;;;;;;20.07;15.40;;;24.30;52.40;;;;;;4978639;28;47531;-71
2022/08/28 13:10:59;;;;;;;23.17;15.27;;;24.40;51.70;;;;;;4979165;28;46347;-71
2022/08/28 13:13:37;;;;;;;21.83;16.63;;;24.50;51.80;;;;;;4978064;28;46397;-70
2022/08/28 13:16:09;;;;;;;21.23;15.63;;;24.50;51.80;;;;;;4979856;28;46399;-71
2022/08/28 13:19:02;;;;;;;22.50;15.80;;;24.50;51.80;;;;;;4976773;28;47117;-70
2022/08/28 13:21:31;;;;;;;19.63;15.60;;;24.60;51.90;;;;;;4978690;28;46399;-72
2022/08/28 13:23:59;;;;;;;21.17;14.77;;;24.70;52.00;;;;;;4978668;28;46314;-71
2022/08/28 13:26:27;;;;;;;23.43;15.50;;;24.70;52.00;;;;;;4979380;28;46680;-73